sensor_id;sensor_type;location;lat;lon;timestamp;noise_LAeq;noise_LA_min;noise_LA_max;noise_LA01;noise_LA95
60116;Laerm;62818;49.394;8.686;2023-12-20T00:00:10;73.96;48.60;84.77;;
60116;Laerm;62818;49.394;8.686;2023-12-20T00:01:11;72.29;50.06;85.09;;
60116;Laerm;62818;49.394;8.686;2023-12-20T00:02:11;75.62;49.74;84.57;;
60116;Laerm;62818;49.394;8.686;2023-12-20T00:03:12;71.48;49.97;84.79;;
60116;Laerm;62818;49.394;8.686;2023-12-20T00:04:12;75.13;50.92;84.60;;
60116;Laerm;62818;49.394;8.686;2023-12-20T00:05:14;73.56;50.11;84.68;;
60116;Laerm;62818;49.394;8.686;2023-12-20T00:06:14;73.12;50.12;85.11;;
60116;Laerm;62818;49.394;8.686;2023-12-20T00:07:15;71.19;49.90;84.93;;
60116;Laerm;62818;49.394;8.686;2023-12-20T00:08:16;75.29;49.66;84.79;;
60116;Laerm;62818;49.394;8.686;2023-12-20T00:09:17;74.84;49.85;84.78;;
60116;Laerm;62818;49.394;8.686;2023-12-20T00:10:18;73.94;49.34;84.82;;
60116;Laerm;62818;49.394;8.686;2023-12-20T00:11:18;74.08;50.09;84.76;;
60116;Laerm;62818;49.394;8.686;2023-12-20T00:12:18;74.23;49.89;84.71;;
60116;Laerm;62818;49.394;8.686;2023-12-20T00:13:19;74.29;49.20;84.79;;
60116;Laerm;62818;49.394;8.686;2023-12-20T00:14:19;72.59;49.25;84.96;;
60116;Laerm;62818;49.394;8.686;2023-12-20T00:15:20;71.39;49.91;85.02;;
60116;Laerm;62818;49.394;8.686;2023-12-20T00:16:21;75.04;51.26;84.84;;
60116;Laerm;62818;49.394;8.686;2023-12-20T00:17:21;74.91;51.89;84.68;;
60116;Laerm;62818;49.394;8.686;2023-12-20T00:18:22;74.30;52.42;85.82;;
60116;Laerm;62818;49.394;8.686;2023-12-20T00:19:22;75.20;52.48;84.56;;
60116;Laerm;62818;49.394;8.686;2023-12-20T00:20:23;71.37;52.48;85.01;;
60116;Laerm;62818;49.394;8.686;2023-12-20T00:21:23;74.95;52.56;84.24;;
60116;Laerm;62818;49.394;8.686;2023-12-20T00:22:24;74.55;53.62;85.06;;
60116;Laerm;62818;49.394;8.686;2023-12-20T00:23:24;74.47;53.97;84.82;;
60116;Laerm;62818;49.394;8.686;2023-12-20T00:24:25;72.41;53.95;84.61;;
60116;Laerm;62818;49.394;8.686;2023-12-20T00:25:26;71.37;52.87;84.78;;
60116;Laerm;62818;49.394;8.686;2023-12-20T00:26:26;71.70;52.21;84.84;;
60116;Laerm;62818;49.394;8.686;2023-12-20T00:27:28;74.78;51.35;85.02;;
60116;Laerm;62818;49.394;8.686;2023-12-20T00:28:29;74.66;52.65;84.75;;
60116;Laerm;62818;49.394;8.686;2023-12-20T00:29:30;74.66;51.54;84.85;;
60116;Laerm;62818;49.394;8.686;2023-12-20T00:30:30;74.49;52.09;84.60;;
60116;Laerm;62818;49.394;8.686;2023-12-20T00:31:31;72.60;51.13;84.62;;
60116;Laerm;62818;49.394;8.686;2023-12-20T00:32:32;72.04;52.68;85.09;;
60116;Laerm;62818;49.394;8.686;2023-12-20T00:33:32;71.33;52.97;85.62;;
60116;Laerm;62818;49.394;8.686;2023-12-20T00:34:33;75.26;51.93;85.08;;
60116;Laerm;62818;49.394;8.686;2023-12-20T00:35:33;74.44;51.41;84.92;;
60116;Laerm;62818;49.394;8.686;2023-12-20T00:36:34;71.44;51.72;84.96;;
60116;Laerm;62818;49.394;8.686;2023-12-20T00:37:34;75.37;52.19;84.65;;
60116;Laerm;62818;49.394;8.686;2023-12-20T00:38:35;72.99;52.64;85.14;;
60116;Laerm;62818;49.394;8.686;2023-12-20T00:39:35;73.46;53.87;84.78;;
60116;Laerm;62818;49.394;8.686;2023-12-20T00:40:36;71.38;52.76;84.71;;
60116;Laerm;62818;49.394;8.686;2023-12-20T00:41:36;71.33;53.11;84.85;;
60116;Laerm;62818;49.394;8.686;2023-12-20T00:42:37;74.08;52.93;84.93;;
60116;Laerm;62818;49.394;8.686;2023-12-20T00:43:38;71.53;52.83;85.00;;
60116;Laerm;62818;49.394;8.686;2023-12-20T00:44:38;74.09;52.81;85.13;;
60116;Laerm;62818;49.394;8.686;2023-12-20T00:45:39;75.74;53.35;84.60;;
60116;Laerm;62818;49.394;8.686;2023-12-20T00:46:39;75.63;53.71;84.33;;
60116;Laerm;62818;49.394;8.686;2023-12-20T00:47:40;74.20;53.13;84.53;;
60116;Laerm;62818;49.394;8.686;2023-12-20T00:48:40;75.14;52.88;84.27;;
60116;Laerm;62818;49.394;8.686;2023-12-20T00:49:42;75.02;52.32;84.53;;
60116;Laerm;62818;49.394;8.686;2023-12-20T00:50:42;71.83;50.72;85.04;;
60116;Laerm;62818;49.394;8.686;2023-12-20T00:51:43;72.67;52.08;84.73;;
60116;Laerm;62818;49.394;8.686;2023-12-20T00:52:43;73.62;50.98;84.81;;
60116;Laerm;62818;49.394;8.686;2023-12-20T00:53:44;71.50;51.85;84.84;;
60116;Laerm;62818;49.394;8.686;2023-12-20T00:54:45;75.19;51.61;84.62;;
60116;Laerm;62818;49.394;8.686;2023-12-20T00:55:46;75.81;51.53;84.11;;
60116;Laerm;62818;49.394;8.686;2023-12-20T00:56:46;70.75;51.58;84.67;;
60116;Laerm;62818;49.394;8.686;2023-12-20T00:57:47;72.73;52.43;85.22;;
60116;Laerm;62818;49.394;8.686;2023-12-20T00:58:47;73.86;51.45;84.88;;
60116;Laerm;62818;49.394;8.686;2023-12-20T00:59:48;75.05;50.87;84.68;;
60116;Laerm;62818;49.394;8.686;2023-12-20T01:00:48;75.27;50.51;84.78;;
60116;Laerm;62818;49.394;8.686;2023-12-20T01:01:49;73.97;50.38;84.83;;
60116;Laerm;62818;49.394;8.686;2023-12-20T01:02:49;71.41;50.49;84.96;;
60116;Laerm;62818;49.394;8.686;2023-12-20T01:03:51;71.67;51.72;84.77;;
60116;Laerm;62818;49.394;8.686;2023-12-20T01:04:53;73.72;50.98;85.02;;
60116;Laerm;62818;49.394;8.686;2023-12-20T01:05:53;71.67;50.46;84.72;;
60116;Laerm;62818;49.394;8.686;2023-12-20T01:06:54;73.64;50.58;85.07;;
60116;Laerm;62818;49.394;8.686;2023-12-20T01:07:54;71.25;49.33;85.57;;
60116;Laerm;62818;49.394;8.686;2023-12-20T01:08:55;73.16;49.71;84.99;;
60116;Laerm;62818;49.394;8.686;2023-12-20T01:09:55;71.27;48.71;84.59;;
60116;Laerm;62818;49.394;8.686;2023-12-20T01:10:55;74.68;48.88;85.08;;
60116;Laerm;62818;49.394;8.686;2023-12-20T01:11:56;75.07;47.84;84.80;;
60116;Laerm;62818;49.394;8.686;2023-12-20T01:12:56;73.76;48.12;84.54;;
60116;Laerm;62818;49.394;8.686;2023-12-20T01:13:57;74.98;48.02;84.69;;
60116;Laerm;62818;49.394;8.686;2023-12-20T01:14:57;74.60;48.63;84.88;;
60116;Laerm;62818;49.394;8.686;2023-12-20T01:15:58;71.79;49.85;84.69;;
60116;Laerm;62818;49.394;8.686;2023-12-20T01:16:59;74.42;49.41;85.13;;
60116;Laerm;62818;49.394;8.686;2023-12-20T01:18:00;72.12;50.55;84.83;;
60116;Laerm;62818;49.394;8.686;2023-12-20T01:19:00;71.99;49.92;84.79;;
60116;Laerm;62818;49.394;8.686;2023-12-20T01:20:01;75.13;49.97;84.67;;
60116;Laerm;62818;49.394;8.686;2023-12-20T01:21:02;74.24;49.02;84.70;;
60116;Laerm;62818;49.394;8.686;2023-12-20T01:22:04;72.20;49.89;84.75;;
60116;Laerm;62818;49.394;8.686;2023-12-20T01:23:04;73.22;49.55;84.74;;
60116;Laerm;62818;49.394;8.686;2023-12-20T01:24:05;74.68;50.06;84.45;;
60116;Laerm;62818;49.394;8.686;2023-12-20T01:25:06;71.52;50.06;84.59;;
60116;Laerm;62818;49.394;8.686;2023-12-20T01:26:07;73.60;49.92;84.71;;
60116;Laerm;62818;49.394;8.686;2023-12-20T01:27:07;74.49;49.55;85.41;;
60116;Laerm;62818;49.394;8.686;2023-12-20T01:28:08;71.27;49.34;84.82;;
60116;Laerm;62818;49.394;8.686;2023-12-20T01:29:09;75.55;49.12;85.43;;
60116;Laerm;62818;49.394;8.686;2023-12-20T01:30:09;75.12;49.63;84.66;;
60116;Laerm;62818;49.394;8.686;2023-12-20T01:31:10;74.24;50.45;84.40;;
60116;Laerm;62818;49.394;8.686;2023-12-20T01:32:11;72.29;50.08;84.91;;
60116;Laerm;62818;49.394;8.686;2023-12-20T01:33:11;71.29;50.68;84.63;;
60116;Laerm;62818;49.394;8.686;2023-12-20T01:34:12;75.31;50.60;84.84;;
60116;Laerm;62818;49.394;8.686;2023-12-20T01:35:12;74.44;50.45;84.79;;
60116;Laerm;62818;49.394;8.686;2023-12-20T01:36:13;75.41;50.93;84.65;;
60116;Laerm;62818;49.394;8.686;2023-12-20T01:37:14;71.41;50.13;85.28;;
60116;Laerm;62818;49.394;8.686;2023-12-20T01:38:15;75.08;49.67;84.71;;
60116;Laerm;62818;49.394;8.686;2023-12-20T01:39:18;71.30;50.73;84.77;;
60116;Laerm;62818;49.394;8.686;2023-12-20T01:40:19;71.63;51.33;84.64;;
60116;Laerm;62818;49.394;8.686;2023-12-20T01:41:20;74.05;51.61;84.99;;
60116;Laerm;62818;49.394;8.686;2023-12-20T01:42:20;75.61;50.83;84.90;;
60116;Laerm;62818;49.394;8.686;2023-12-20T01:43:22;73.97;50.44;84.70;;
60116;Laerm;62818;49.394;8.686;2023-12-20T01:44:23;71.50;50.84;84.75;;
60116;Laerm;62818;49.394;8.686;2023-12-20T01:45:23;72.22;50.82;85.08;;
60116;Laerm;62818;49.394;8.686;2023-12-20T01:46:24;72.41;50.44;85.11;;
60116;Laerm;62818;49.394;8.686;2023-12-20T01:47:25;54.78;49.62;65.72;;
60116;Laerm;62818;49.394;8.686;2023-12-20T01:48:28;75.32;50.46;84.53;;
60116;Laerm;62818;49.394;8.686;2023-12-20T01:49:28;75.96;50.27;84.21;;
60116;Laerm;62818;49.394;8.686;2023-12-20T01:50:31;71.17;50.36;84.74;;
60116;Laerm;62818;49.394;8.686;2023-12-20T01:51:33;71.85;50.61;84.91;;
60116;Laerm;62818;49.394;8.686;2023-12-20T01:52:34;57.26;50.40;65.61;;
60116;Laerm;62818;49.394;8.686;2023-12-20T01:53:35;71.67;49.70;84.79;;
60116;Laerm;62818;49.394;8.686;2023-12-20T01:54:37;74.46;49.74;84.69;;
60116;Laerm;62818;49.394;8.686;2023-12-20T01:55:40;71.62;50.06;84.97;;
60116;Laerm;62818;49.394;8.686;2023-12-20T01:56:41;73.46;49.50;84.66;;
60116;Laerm;62818;49.394;8.686;2023-12-20T01:57:42;74.20;49.04;84.80;;
60116;Laerm;62818;49.394;8.686;2023-12-20T01:58:45;71.42;49.24;84.89;;
60116;Laerm;62818;49.394;8.686;2023-12-20T01:59:46;71.31;49.45;84.88;;
60116;Laerm;62818;49.394;8.686;2023-12-20T02:00:48;71.43;49.57;84.58;;
60116;Laerm;62818;49.394;8.686;2023-12-20T02:01:48;74.89;48.37;84.80;;
60116;Laerm;62818;49.394;8.686;2023-12-20T02:02:53;75.59;48.32;83.87;;
60116;Laerm;62818;49.394;8.686;2023-12-20T02:03:54;73.69;49.12;84.73;;
60116;Laerm;62818;49.394;8.686;2023-12-20T02:04:56;71.12;50.03;84.94;;
60116;Laerm;62818;49.394;8.686;2023-12-20T02:05:56;75.79;49.25;84.40;;
60116;Laerm;62818;49.394;8.686;2023-12-20T02:06:58;75.09;49.38;84.54;;
60116;Laerm;62818;49.394;8.686;2023-12-20T02:07:59;71.73;49.73;85.08;;
60116;Laerm;62818;49.394;8.686;2023-12-20T02:09:00;72.33;49.39;84.88;;
60116;Laerm;62818;49.394;8.686;2023-12-20T02:10:04;71.62;48.83;84.42;;
60116;Laerm;62818;49.394;8.686;2023-12-20T02:11:04;71.85;48.32;84.58;;
60116;Laerm;62818;49.394;8.686;2023-12-20T02:12:05;75.01;47.79;85.24;;
60116;Laerm;62818;49.394;8.686;2023-12-20T02:13:06;74.46;47.38;84.73;;
60116;Laerm;62818;49.394;8.686;2023-12-20T02:14:06;75.17;47.06;84.71;;
60116;Laerm;62818;49.394;8.686;2023-12-20T02:15:07;73.31;47.65;84.49;;
60116;Laerm;62818;49.394;8.686;2023-12-20T02:16:08;73.20;47.32;84.68;;
60116;Laerm;62818;49.394;8.686;2023-12-20T02:17:08;75.13;47.91;85.16;;
60116;Laerm;62818;49.394;8.686;2023-12-20T02:18:09;71.20;48.76;85.52;;
60116;Laerm;62818;49.394;8.686;2023-12-20T02:19:14;72.71;49.03;84.73;;
60116;Laerm;62818;49.394;8.686;2023-12-20T02:20:15;73.24;49.29;84.91;;
60116;Laerm;62818;49.394;8.686;2023-12-20T02:21:16;71.27;49.35;85.29;;
60116;Laerm;62818;49.394;8.686;2023-12-20T02:22:16;73.91;48.78;84.99;;
60116;Laerm;62818;49.394;8.686;2023-12-20T02:23:17;71.39;48.66;84.72;;
60116;Laerm;62818;49.394;8.686;2023-12-20T02:24:17;73.72;48.28;85.08;;
60116;Laerm;62818;49.394;8.686;2023-12-20T02:25:18;75.76;48.31;84.31;;
60116;Laerm;62818;49.394;8.686;2023-12-20T02:26:18;75.17;48.80;84.41;;
60116;Laerm;62818;49.394;8.686;2023-12-20T02:27:19;73.51;48.85;84.55;;
60116;Laerm;62818;49.394;8.686;2023-12-20T02:28:20;74.34;49.59;85.03;;
60116;Laerm;62818;49.394;8.686;2023-12-20T02:29:22;74.38;50.04;84.80;;
60116;Laerm;62818;49.394;8.686;2023-12-20T02:30:23;74.56;50.14;84.83;;
60116;Laerm;62818;49.394;8.686;2023-12-20T02:31:24;75.03;50.92;84.53;;
60116;Laerm;62818;49.394;8.686;2023-12-20T02:32:25;71.20;50.68;84.70;;
60116;Laerm;62818;49.394;8.686;2023-12-20T02:33:26;71.39;50.42;84.99;;
60116;Laerm;62818;49.394;8.686;2023-12-20T02:34:26;71.31;50.30;85.01;;
60116;Laerm;62818;49.394;8.686;2023-12-20T02:35:27;74.86;50.91;85.05;;
60116;Laerm;62818;49.394;8.686;2023-12-20T02:36:27;75.08;50.26;84.36;;
60116;Laerm;62818;49.394;8.686;2023-12-20T02:37:28;71.37;49.75;84.97;;
60116;Laerm;62818;49.394;8.686;2023-12-20T02:38:28;74.59;49.93;84.55;;
60116;Laerm;62818;49.394;8.686;2023-12-20T02:39:30;73.49;49.56;85.07;;
60116;Laerm;62818;49.394;8.686;2023-12-20T02:40:30;74.78;49.81;84.96;;
60116;Laerm;62818;49.394;8.686;2023-12-20T02:41:31;74.89;49.25;84.70;;
60116;Laerm;62818;49.394;8.686;2023-12-20T02:42:31;74.91;48.73;84.43;;
60116;Laerm;62818;49.394;8.686;2023-12-20T02:43:32;70.76;48.71;84.83;;
60116;Laerm;62818;49.394;8.686;2023-12-20T02:44:32;71.29;48.67;84.99;;
60116;Laerm;62818;49.394;8.686;2023-12-20T02:45:33;74.01;49.11;84.76;;
60116;Laerm;62818;49.394;8.686;2023-12-20T02:46:33;75.85;49.08;84.92;;
60116;Laerm;62818;49.394;8.686;2023-12-20T02:47:34;72.99;49.41;85.03;;
60116;Laerm;62818;49.394;8.686;2023-12-20T02:48:34;71.45;49.20;84.71;;
60116;Laerm;62818;49.394;8.686;2023-12-20T02:49:35;71.30;49.18;84.77;;
60116;Laerm;62818;49.394;8.686;2023-12-20T02:50:35;73.40;48.90;85.04;;
60116;Laerm;62818;49.394;8.686;2023-12-20T02:51:36;71.33;49.08;85.09;;
60116;Laerm;62818;49.394;8.686;2023-12-20T02:52:38;71.54;49.07;84.98;;
60116;Laerm;62818;49.394;8.686;2023-12-20T02:53:39;74.86;49.43;84.94;;
60116;Laerm;62818;49.394;8.686;2023-12-20T02:54:39;75.68;48.91;84.57;;
60116;Laerm;62818;49.394;8.686;2023-12-20T02:55:40;71.77;49.32;84.78;;
60116;Laerm;62818;49.394;8.686;2023-12-20T02:56:40;75.13;48.81;84.49;;
60116;Laerm;62818;49.394;8.686;2023-12-20T02:57:41;75.09;49.25;84.41;;
60116;Laerm;62818;49.394;8.686;2023-12-20T02:58:42;74.42;49.12;84.44;;
60116;Laerm;62818;49.394;8.686;2023-12-20T02:59:42;72.31;48.43;85.01;;
60116;Laerm;62818;49.394;8.686;2023-12-20T03:00:42;74.23;47.28;84.45;;
60116;Laerm;62818;49.394;8.686;2023-12-20T03:01:45;71.02;46.05;84.94;;
60116;Laerm;62818;49.394;8.686;2023-12-20T03:02:46;74.52;45.36;84.72;;
60116;Laerm;62818;49.394;8.686;2023-12-20T03:03:46;71.44;44.90;84.91;;
60116;Laerm;62818;49.394;8.686;2023-12-20T03:04:47;74.48;44.47;84.71;;
60116;Laerm;62818;49.394;8.686;2023-12-20T03:05:47;72.76;44.47;85.16;;
60116;Laerm;62818;49.394;8.686;2023-12-20T03:06:48;71.57;44.27;84.75;;
60116;Laerm;62818;49.394;8.686;2023-12-20T03:07:48;75.19;44.11;83.96;;
60116;Laerm;62818;49.394;8.686;2023-12-20T03:08:49;74.76;43.77;84.26;;
60116;Laerm;62818;49.394;8.686;2023-12-20T03:09:49;74.07;43.34;84.81;;
60116;Laerm;62818;49.394;8.686;2023-12-20T03:10:50;73.91;42.82;84.32;;
60116;Laerm;62818;49.394;8.686;2023-12-20T03:11:50;71.29;44.11;84.91;;
60116;Laerm;62818;49.394;8.686;2023-12-20T03:12:51;72.90;45.99;84.84;;
60116;Laerm;62818;49.394;8.686;2023-12-20T03:13:51;71.18;45.94;84.75;;
60116;Laerm;62818;49.394;8.686;2023-12-20T03:14:52;73.27;46.15;84.77;;
60116;Laerm;62818;49.394;8.686;2023-12-20T03:15:52;73.10;47.34;84.74;;
60116;Laerm;62818;49.394;8.686;2023-12-20T03:16:53;71.31;46.62;84.77;;
60116;Laerm;62818;49.394;8.686;2023-12-20T03:17:53;71.26;45.72;84.82;;
60116;Laerm;62818;49.394;8.686;2023-12-20T03:18:54;75.40;44.65;85.18;;
60116;Laerm;62818;49.394;8.686;2023-12-20T03:19:54;72.46;44.11;84.84;;
60116;Laerm;62818;49.394;8.686;2023-12-20T03:20:55;74.54;44.03;84.66;;
60116;Laerm;62818;49.394;8.686;2023-12-20T03:21:55;75.14;43.49;84.56;;
60116;Laerm;62818;49.394;8.686;2023-12-20T03:22:56;74.66;43.14;84.69;;
60116;Laerm;62818;49.394;8.686;2023-12-20T03:23:56;74.81;42.82;84.51;;
60116;Laerm;62818;49.394;8.686;2023-12-20T03:24:57;72.08;43.44;84.61;;
60116;Laerm;62818;49.394;8.686;2023-12-20T03:25:59;73.91;42.35;84.32;;
60116;Laerm;62818;49.394;8.686;2023-12-20T03:26:59;73.52;42.22;84.40;;
60116;Laerm;62818;49.394;8.686;2023-12-20T03:28:00;72.43;43.34;84.97;;
60116;Laerm;62818;49.394;8.686;2023-12-20T03:29:00;75.07;41.75;84.41;;
60116;Laerm;62818;49.394;8.686;2023-12-20T03:30:01;72.21;41.82;84.61;;
60116;Laerm;62818;49.394;8.686;2023-12-20T03:31:02;72.97;41.82;84.87;;
60116;Laerm;62818;49.394;8.686;2023-12-20T03:32:03;74.72;42.22;84.71;;
60116;Laerm;62818;49.394;8.686;2023-12-20T03:33:03;75.15;42.16;84.75;;
60116;Laerm;62818;49.394;8.686;2023-12-20T03:34:04;71.14;41.68;84.77;;
60116;Laerm;62818;49.394;8.686;2023-12-20T03:35:05;74.32;42.59;84.65;;
60116;Laerm;62818;49.394;8.686;2023-12-20T03:36:06;71.28;43.44;84.65;;
60116;Laerm;62818;49.394;8.686;2023-12-20T03:37:07;74.41;42.76;84.74;;
60116;Laerm;62818;49.394;8.686;2023-12-20T03:38:07;75.76;42.76;84.25;;
60116;Laerm;62818;49.394;8.686;2023-12-20T03:39:08;75.21;43.39;84.28;;
60116;Laerm;62818;49.394;8.686;2023-12-20T03:40:10;71.17;42.82;84.75;;
60116;Laerm;62818;49.394;8.686;2023-12-20T03:41:11;74.41;43.05;84.85;;
60116;Laerm;62818;49.394;8.686;2023-12-20T03:42:11;75.30;43.04;84.52;;
60116;Laerm;62818;49.394;8.686;2023-12-20T03:43:13;75.16;42.65;84.44;;
60116;Laerm;62818;49.394;8.686;2023-12-20T03:44:13;70.87;41.89;84.58;;
60116;Laerm;62818;49.394;8.686;2023-12-20T03:45:14;74.56;41.11;84.97;;
60116;Laerm;62818;49.394;8.686;2023-12-20T03:46:15;75.15;41.61;84.83;;
60116;Laerm;62818;49.394;8.686;2023-12-20T03:47:15;71.58;41.30;84.90;;
60116;Laerm;62818;49.394;8.686;2023-12-20T03:48:16;72.60;41.53;85.02;;
60116;Laerm;62818;49.394;8.686;2023-12-20T03:49:16;74.43;41.53;85.02;;
60116;Laerm;62818;49.394;8.686;2023-12-20T03:50:17;74.24;42.35;84.92;;
60116;Laerm;62818;49.394;8.686;2023-12-20T03:51:17;71.19;42.22;84.62;;
60116;Laerm;62818;49.394;8.686;2023-12-20T03:52:18;74.25;42.47;84.51;;
60116;Laerm;62818;49.394;8.686;2023-12-20T03:53:18;71.38;42.65;84.93;;
60116;Laerm;62818;49.394;8.686;2023-12-20T03:54:19;74.44;41.61;84.61;;
60116;Laerm;62818;49.394;8.686;2023-12-20T03:55:19;71.46;41.38;84.59;;
60116;Laerm;62818;49.394;8.686;2023-12-20T03:56:19;75.54;41.82;84.31;;
60116;Laerm;62818;49.394;8.686;2023-12-20T03:57:20;72.20;42.29;84.64;;
60116;Laerm;62818;49.394;8.686;2023-12-20T03:58:20;71.23;42.98;84.82;;
60116;Laerm;62818;49.394;8.686;2023-12-20T03:59:22;71.04;41.61;85.04;;
60116;Laerm;62818;49.394;8.686;2023-12-20T04:00:23;75.21;42.16;84.72;;
60116;Laerm;62818;49.394;8.686;2023-12-20T04:01:23;75.22;41.75;84.31;;
60116;Laerm;62818;49.394;8.686;2023-12-20T04:02:23;74.29;42.76;84.78;;
60116;Laerm;62818;49.394;8.686;2023-12-20T04:03:24;71.19;41.89;85.08;;
60116;Laerm;62818;49.394;8.686;2023-12-20T04:04:24;73.35;42.59;84.67;;
60116;Laerm;62818;49.394;8.686;2023-12-20T04:05:25;74.63;42.13;84.53;;
60116;Laerm;62818;49.394;8.686;2023-12-20T04:06:25;74.94;42.35;84.52;;
60116;Laerm;62818;49.394;8.686;2023-12-20T04:07:26;70.77;42.53;84.82;;
60116;Laerm;62818;49.394;8.686;2023-12-20T04:08:27;71.45;42.88;84.73;;
60116;Laerm;62818;49.394;8.686;2023-12-20T04:09:27;74.16;43.04;84.84;;
60116;Laerm;62818;49.394;8.686;2023-12-20T04:10:27;71.33;43.19;84.90;;
60116;Laerm;62818;49.394;8.686;2023-12-20T04:11:28;74.78;43.09;84.64;;
60116;Laerm;62818;49.394;8.686;2023-12-20T04:12:29;74.53;43.09;85.23;;
60116;Laerm;62818;49.394;8.686;2023-12-20T04:13:29;75.29;42.93;84.53;;
60116;Laerm;62818;49.394;8.686;2023-12-20T04:14:30;72.26;43.14;84.88;;
60116;Laerm;62818;49.394;8.686;2023-12-20T04:15:30;74.22;43.09;84.74;;
60116;Laerm;62818;49.394;8.686;2023-12-20T04:16:31;71.24;43.19;84.71;;
60116;Laerm;62818;49.394;8.686;2023-12-20T04:17:31;73.73;42.98;84.38;;
60116;Laerm;62818;49.394;8.686;2023-12-20T04:18:32;75.31;43.34;84.78;;
60116;Laerm;62818;49.394;8.686;2023-12-20T04:19:32;72.23;43.34;84.61;;
60116;Laerm;62818;49.394;8.686;2023-12-20T04:20:33;71.37;43.29;84.74;;
60116;Laerm;62818;49.394;8.686;2023-12-20T04:21:33;74.84;43.49;85.30;;
60116;Laerm;62818;49.394;8.686;2023-12-20T04:22:34;75.04;43.09;84.26;;
60116;Laerm;62818;49.394;8.686;2023-12-20T04:23:34;72.67;42.88;84.63;;
60116;Laerm;62818;49.394;8.686;2023-12-20T04:24:35;72.45;42.79;84.64;;
60116;Laerm;62818;49.394;8.686;2023-12-20T04:25:35;74.05;43.24;84.68;;
60116;Laerm;62818;49.394;8.686;2023-12-20T04:26:36;71.30;41.75;84.51;;
60116;Laerm;62818;49.394;8.686;2023-12-20T04:27:36;74.98;41.96;84.90;;
60116;Laerm;62818;49.394;8.686;2023-12-20T04:28:37;75.18;42.35;84.63;;
60116;Laerm;62818;49.394;8.686;2023-12-20T04:29:37;75.06;44.39;84.40;;
60116;Laerm;62818;49.394;8.686;2023-12-20T04:30:38;70.51;44.03;85.30;;
60116;Laerm;62818;49.394;8.686;2023-12-20T04:31:38;72.59;44.58;84.74;;
60116;Laerm;62818;49.394;8.686;2023-12-20T04:32:39;74.05;42.65;84.63;;
60116;Laerm;62818;49.394;8.686;2023-12-20T04:33:39;74.59;42.65;84.94;;
60116;Laerm;62818;49.394;8.686;2023-12-20T04:34:40;72.50;43.94;84.48;;
60116;Laerm;62818;49.394;8.686;2023-12-20T04:35:40;71.46;44.15;84.82;;
60116;Laerm;62818;49.394;8.686;2023-12-20T04:36:43;72.49;43.04;84.68;;
60116;Laerm;62818;49.394;8.686;2023-12-20T04:37:43;74.69;44.27;84.43;;
60116;Laerm;62818;49.394;8.686;2023-12-20T04:38:44;75.12;45.33;84.80;;
60116;Laerm;62818;49.394;8.686;2023-12-20T04:39:44;71.47;45.69;84.62;;
60116;Laerm;62818;49.394;8.686;2023-12-20T04:40:45;74.59;45.51;84.47;;
60116;Laerm;62818;49.394;8.686;2023-12-20T04:41:45;72.76;45.17;84.59;;
60116;Laerm;62818;49.394;8.686;2023-12-20T04:42:47;71.43;44.19;85.07;;
60116;Laerm;62818;49.394;8.686;2023-12-20T04:43:48;71.51;45.80;84.88;;
60116;Laerm;62818;49.394;8.686;2023-12-20T04:44:48;73.74;45.63;84.72;;
60116;Laerm;62818;49.394;8.686;2023-12-20T04:45:49;75.35;45.42;84.68;;
60116;Laerm;62818;49.394;8.686;2023-12-20T04:46:49;74.55;44.27;84.48;;
60116;Laerm;62818;49.394;8.686;2023-12-20T04:47:51;75.12;46.80;84.77;;
60116;Laerm;62818;49.394;8.686;2023-12-20T04:48:52;74.70;46.13;84.80;;
60116;Laerm;62818;49.394;8.686;2023-12-20T04:49:52;75.29;44.82;84.63;;
60116;Laerm;62818;49.394;8.686;2023-12-20T04:50:53;71.08;46.66;84.75;;
60116;Laerm;62818;49.394;8.686;2023-12-20T04:51:53;76.10;44.87;84.70;;
60116;Laerm;62818;49.394;8.686;2023-12-20T04:52:54;74.65;45.42;84.52;;
60116;Laerm;62818;49.394;8.686;2023-12-20T04:53:54;71.17;45.23;84.80;;
60116;Laerm;62818;49.394;8.686;2023-12-20T04:54:55;71.39;44.76;85.23;;
60116;Laerm;62818;49.394;8.686;2023-12-20T04:55:55;72.06;44.39;84.88;;
60116;Laerm;62818;49.394;8.686;2023-12-20T04:56:55;71.38;45.27;85.03;;
60116;Laerm;62818;49.394;8.686;2023-12-20T04:57:56;75.31;44.66;84.63;;
60116;Laerm;62818;49.394;8.686;2023-12-20T04:58:56;75.11;44.19;84.51;;
60116;Laerm;62818;49.394;8.686;2023-12-20T04:59:57;75.18;43.19;84.63;;
60116;Laerm;62818;49.394;8.686;2023-12-20T05:00:58;71.03;44.27;84.42;;
60116;Laerm;62818;49.394;8.686;2023-12-20T05:01:58;71.20;44.19;84.79;;
60116;Laerm;62818;49.394;8.686;2023-12-20T05:02:59;71.68;45.39;84.96;;
60116;Laerm;62818;49.394;8.686;2023-12-20T05:04:00;73.24;51.04;84.60;;
60116;Laerm;62818;49.394;8.686;2023-12-20T05:05:00;74.27;47.40;84.64;;
60116;Laerm;62818;49.394;8.686;2023-12-20T05:06:01;71.24;45.75;84.76;;
60116;Laerm;62818;49.394;8.686;2023-12-20T05:07:02;71.56;47.18;84.66;;
60116;Laerm;62818;49.394;8.686;2023-12-20T05:08:05;75.85;47.65;84.82;;
60116;Laerm;62818;49.394;8.686;2023-12-20T05:09:06;75.46;44.19;84.34;;
60116;Laerm;62818;49.394;8.686;2023-12-20T05:10:07;74.57;43.58;84.47;;
60116;Laerm;62818;49.394;8.686;2023-12-20T05:11:08;73.51;47.26;84.60;;
60116;Laerm;62818;49.394;8.686;2023-12-20T05:12:09;74.59;45.27;84.40;;
60116;Laerm;62818;49.394;8.686;2023-12-20T05:13:10;75.27;43.68;84.29;;
60116;Laerm;62818;49.394;8.686;2023-12-20T05:14:11;74.65;44.15;85.10;;
60116;Laerm;62818;49.394;8.686;2023-12-20T05:15:11;74.44;45.14;84.88;;
60116;Laerm;62818;49.394;8.686;2023-12-20T05:16:12;71.05;46.30;84.75;;
60116;Laerm;62818;49.394;8.686;2023-12-20T05:17:14;71.65;50.21;84.91;;
60116;Laerm;62818;49.394;8.686;2023-12-20T05:18:14;71.25;44.65;84.90;;
60116;Laerm;62818;49.394;8.686;2023-12-20T05:19:15;74.37;44.31;84.50;;
60116;Laerm;62818;49.394;8.686;2023-12-20T05:20:15;74.08;46.08;84.83;;
60116;Laerm;62818;49.394;8.686;2023-12-20T05:21:16;71.40;44.76;84.71;;
60116;Laerm;62818;49.394;8.686;2023-12-20T05:22:17;72.07;43.81;84.62;;
60116;Laerm;62818;49.394;8.686;2023-12-20T05:23:17;74.71;43.94;84.49;;
60116;Laerm;62818;49.394;8.686;2023-12-20T05:24:18;74.64;43.58;84.89;;
60116;Laerm;62818;49.394;8.686;2023-12-20T05:25:18;71.95;49.24;84.84;;
60116;Laerm;62818;49.394;8.686;2023-12-20T05:26:19;71.70;48.08;84.49;;
60116;Laerm;62818;49.394;8.686;2023-12-20T05:27:19;71.65;44.51;84.92;;
60116;Laerm;62818;49.394;8.686;2023-12-20T05:28:20;74.08;44.19;84.60;;
60116;Laerm;62818;49.394;8.686;2023-12-20T05:29:20;71.81;47.74;84.72;;
60116;Laerm;62818;49.394;8.686;2023-12-20T05:30:21;75.28;43.44;84.58;;
60116;Laerm;62818;49.394;8.686;2023-12-20T05:31:22;71.28;45.33;84.34;;
60116;Laerm;62818;49.394;8.686;2023-12-20T05:32:25;75.31;44.15;84.77;;
60116;Laerm;62818;49.394;8.686;2023-12-20T05:33:26;71.47;44.69;84.51;;
60116;Laerm;62818;49.394;8.686;2023-12-20T05:34:26;75.19;51.86;84.50;;
60116;Laerm;62818;49.394;8.686;2023-12-20T05:35:27;71.00;56.15;84.64;;
60116;Laerm;62818;49.394;8.686;2023-12-20T05:36:27;74.88;56.55;84.53;;
60116;Laerm;62818;49.394;8.686;2023-12-20T05:37:28;75.32;56.27;83.92;;
60116;Laerm;62818;49.394;8.686;2023-12-20T05:38:29;75.12;46.10;84.33;;
60116;Laerm;62818;49.394;8.686;2023-12-20T05:39:29;71.89;48.29;84.96;;